Porto Di Livorno — IFPU2 — position and weather

sailwx.info

Track history (hours):
 
Tides and Currents Weather Stations Pressure Air Temp Water Temp Dewpoint Dewpoint Depression Visibility Wind Speed Wind Dir Waves Ship Positions

Porto Di Livorno

Last reported at 2014-Aug-22 13:33 UTC. Time now 2014-Aug-22 15:46 UTC.
Position N 43°34' E 010°18'.

Length 24 m; draft 6.1 m.

Type: Tug. MMSI: 247194299.

Date/timePositionNaut miles runAvg speedWind from/ knotsBaromVisibWave heightAir tempDewpointWater temp
2014-Aug-22 13:33N 43°34' E 010°18'0 0.0
2014-Aug-22 12:33N 43°34' E 010°18'0 0.0
2014-Aug-22 11:33N 43°34' E 010°18'0 0.0
2014-Aug-22 10:33N 43°34' E 010°18'0 0.0
2014-Aug-22 09:33N 43°34' E 010°18'0 0.0
2014-Aug-22 08:33N 43°34' E 010°18'0 0.0
2014-Aug-22 07:33N 43°34' E 010°18'0 0.0
2014-Aug-22 06:33N 43°34' E 010°18'0 0.0
2014-Aug-21 15:33N 43°34' E 010°18'0 0.0
2014-Aug-21 14:33N 43°34' E 010°18'1 1.5
2014-Aug-21 13:33N 43°35' E 010°19'2 1.7
2014-Aug-21 12:33N 43°33' E 010°18'0 0.3
2014-Aug-21 11:33N 43°34' E 010°18'0 0.0
2014-Aug-21 10:33N 43°34' E 010°18'0 0.0
2014-Aug-21 09:33N 43°34' E 010°18'0 0.0
2014-Aug-21 08:33N 43°34' E 010°18'0 0.0
2014-Aug-21 07:33N 43°34' E 010°18'0 0.1
2014-Aug-21 06:33N 43°34' E 010°18'0 0.1
2014-Aug-21 05:33N 43°34' E 010°18'1 1.1
2014-Aug-21 04:33N 43°33' E 010°17'1 1.1
2014-Aug-21 03:33N 43°34' E 010°18'0 0.0
2014-Aug-21 02:33N 43°34' E 010°18'0 0.0
2014-Aug-21 01:33N 43°34' E 010°18'0 0.0
2014-Aug-21 00:33N 43°34' E 010°18'0 0.0
2014-Aug-20 23:33N 43°34' E 010°18'0 0.0
2014-Aug-20 22:33N 43°34' E 010°18'0 0.0
2014-Aug-20 21:33N 43°34' E 010°18'0 0.0
2014-Aug-20 20:33N 43°34' E 010°18'0 0.0
2014-Aug-20 19:33N 43°34' E 010°18'1 1.4
2014-Aug-20 18:33N 43°35' E 010°19'3 2.9
2014-Aug-20 17:33N 43°32' E 010°17'2 2.3
2014-Aug-20 16:33N 43°35' E 010°18'1 0.0
2014-Aug-19 15:33N 43°34' E 010°18'0 0.5
2014-Aug-19 14:33N 43°33' E 010°18'0 0.5
2014-Aug-19 13:33N 43°34' E 010°18'1 0.5
2014-Aug-19 12:33N 43°34' E 010°18'1 0.6
2014-Aug-19 11:33N 43°35' E 010°18'1 1.0
2014-Aug-19 10:33N 43°34' E 010°18'0 0.0
2014-Aug-19 09:33N 43°34' E 010°18'0 0.2
2014-Aug-19 08:33N 43°34' E 010°18'0 0.2
2014-Aug-19 07:33N 43°34' E 010°18'0 0.4
2014-Aug-19 06:33N 43°34' E 010°18'1 0.8
2014-Aug-19 05:33N 43°33' E 010°18'0 0.4
2014-Aug-19 04:33N 43°34' E 010°18'0 0.0
2014-Aug-19 03:33N 43°34' E 010°18'0 0.0
2014-Aug-19 02:33N 43°34' E 010°18'0 0.0
2014-Aug-19 01:33N 43°34' E 010°18'0 0.0
2014-Aug-19 00:33N 43°34' E 010°18'0 0.0
2014-Aug-18 23:33N 43°34' E 010°18'1 0.9
2014-Aug-18 22:33N 43°35' E 010°18'1 0.9
2014-Aug-18 21:33N 43°34' E 010°18'0 0.0
2014-Aug-18 20:33N 43°34' E 010°18'0 0.0
2014-Aug-18 19:33N 43°34' E 010°18'0 0.0
2014-Aug-18 18:33N 43°34' E 010°18'2 1.5
2014-Aug-18 17:33N 43°35' E 010°19'2 1.5
2014-Aug-18 16:33N 43°34' E 010°18'0 0.0
2014-Aug-17 15:33N 43°34' E 010°18'0 0.0
2014-Aug-17 14:33N 43°34' E 010°18'2 1.6
2014-Aug-17 13:33N 43°35' E 010°19'2 2.0
2014-Aug-17 12:33N 43°33' E 010°18'0 0.4
2014-Aug-17 11:33N 43°34' E 010°18'1 1.1
2014-Aug-17 10:33N 43°35' E 010°18'3 2.6
2014-Aug-17 09:33N 43°32' E 010°17'2 1.7
2014-Aug-17 08:33N 43°34' E 010°18'0 0.0
2014-Aug-17 07:33N 43°34' E 010°18'1 1.1
2014-Aug-17 06:33N 43°33' E 010°17'1 1.1
2014-Aug-17 05:33N 43°34' E 010°18'0 0.0
2014-Aug-17 04:33N 43°34' E 010°18'0 0.0
2014-Aug-16 08:33N 43°34' E 010°18'0 0.0
2014-Aug-14 17:15N 43°34' E 010°18'0 0.5
2014-Aug-14 16:33N 43°34' E 010°18'1 0.6
2014-Aug-14 15:33N 43°34' E 010°19'1 0.9
2014-Aug-14 14:33N 43°34' E 010°18'1 0.6
2014-Aug-14 13:33N 43°33' E 010°18'0 0.5
2014-Aug-14 12:33N 43°34' E 010°18'0 0.2
2014-Aug-14 11:33N 43°34' E 010°18'0 0.0
2014-Aug-14 10:33N 43°34' E 010°18'0 0.0
2014-Aug-14 09:33N 43°34' E 010°18'0 0.0
2014-Aug-14 08:33N 43°34' E 010°18'0 0.0
2014-Aug-14 07:33N 43°34' E 010°18'0 0.0
2014-Aug-14 06:33N 43°34' E 010°18'1 1.1
2014-Aug-14 05:33N 43°33' E 010°17'1 0.6
2014-Aug-14 04:33N 43°33' E 010°17'1 0.1
2014-Aug-13 16:13N 43°34' E 010°18'1 0.8
2014-Aug-13 15:33N 43°34' E 010°18'0 0.4
2014-Aug-13 14:33N 43°34' E 010°18'0 0.1
2014-Aug-13 13:33N 43°34' E 010°18'0 0.0
2014-Aug-13 12:33N 43°34' E 010°18'0 0.0
2014-Aug-13 11:33N 43°34' E 010°18'1 0.9
2014-Aug-13 10:33N 43°35' E 010°18'1 0.9
2014-Aug-13 09:33N 43°34' E 010°18'0 0.0
2014-Aug-13 08:33N 43°34' E 010°18'0 0.0
2014-Aug-13 07:33N 43°34' E 010°18'0 0.0
2014-Aug-13 06:33N 43°34' E 010°18'0 0.0
2014-Aug-13 05:33N 43°34' E 010°18'0 0.0
2014-Aug-13 04:33N 43°34' E 010°18'0 0.0
2014-Aug-12 15:33N 43°34' E 010°18'0 0.0
2014-Aug-12 14:33N 43°34' E 010°18'1 1.0
2014-Aug-12 13:33N 43°35' E 010°18'  
Track history (hours):
 
Tides and Currents Weather Stations Pressure Air Temp Water Temp Dewpoint Dewpoint Depression Visibility Wind Speed Wind Dir Waves Ship Positions

Porto Di Livorno

Last reported at 2014-Aug-22 13:33 UTC. Time now 2014-Aug-22 15:46 UTC.
Position N 43°34' E 010°18'.

Length 24 m; draft 6.1 m.

Type: Tug. MMSI: 247194299.

Date/timePositionNaut miles runAvg speedWind from/ knotsBaromVisibWave heightAir tempDewpointWater temp
2014-Aug-22 13:33N 43°34' E 010°18'0 0.0
2014-Aug-22 12:33N 43°34' E 010°18'0 0.0
2014-Aug-22 11:33N 43°34' E 010°18'0 0.0
2014-Aug-22 10:33N 43°34' E 010°18'0 0.0
2014-Aug-22 09:33N 43°34' E 010°18'0 0.0
2014-Aug-22 08:33N 43°34' E 010°18'0 0.0
2014-Aug-22 07:33N 43°34' E 010°18'0 0.0
2014-Aug-22 06:33N 43°34' E 010°18'0 0.0
2014-Aug-21 15:33N 43°34' E 010°18'0 0.0
2014-Aug-21 14:33N 43°34' E 010°18'1 1.5
2014-Aug-21 13:33N 43°35' E 010°19'2 1.7
2014-Aug-21 12:33N 43°33' E 010°18'0 0.3
2014-Aug-21 11:33N 43°34' E 010°18'0 0.0
2014-Aug-21 10:33N 43°34' E 010°18'0 0.0
2014-Aug-21 09:33N 43°34' E 010°18'0 0.0
2014-Aug-21 08:33N 43°34' E 010°18'0 0.0
2014-Aug-21 07:33N 43°34' E 010°18'0 0.1
2014-Aug-21 06:33N 43°34' E 010°18'0 0.1
2014-Aug-21 05:33N 43°34' E 010°18'1 1.1
2014-Aug-21 04:33N 43°33' E 010°17'1 1.1
2014-Aug-21 03:33N 43°34' E 010°18'0 0.0
2014-Aug-21 02:33N 43°34' E 010°18'0 0.0
2014-Aug-21 01:33N 43°34' E 010°18'0 0.0
2014-Aug-21 00:33N 43°34' E 010°18'0 0.0
2014-Aug-20 23:33N 43°34' E 010°18'0 0.0
2014-Aug-20 22:33N 43°34' E 010°18'0 0.0
2014-Aug-20 21:33N 43°34' E 010°18'0 0.0
2014-Aug-20 20:33N 43°34' E 010°18'0 0.0
2014-Aug-20 19:33N 43°34' E 010°18'1 1.4
2014-Aug-20 18:33N 43°35' E 010°19'3 2.9
2014-Aug-20 17:33N 43°32' E 010°17'2 2.3
2014-Aug-20 16:33N 43°35' E 010°18'1 0.0
2014-Aug-19 15:33N 43°34' E 010°18'0 0.5
2014-Aug-19 14:33N 43°33' E 010°18'0 0.5
2014-Aug-19 13:33N 43°34' E 010°18'1 0.5
2014-Aug-19 12:33N 43°34' E 010°18'1 0.6
2014-Aug-19 11:33N 43°35' E 010°18'1 1.0
2014-Aug-19 10:33N 43°34' E 010°18'0 0.0
2014-Aug-19 09:33N 43°34' E 010°18'0 0.2
2014-Aug-19 08:33N 43°34' E 010°18'0 0.2
2014-Aug-19 07:33N 43°34' E 010°18'0 0.4
2014-Aug-19 06:33N 43°34' E 010°18'1 0.8
2014-Aug-19 05:33N 43°33' E 010°18'0 0.4
2014-Aug-19 04:33N 43°34' E 010°18'0 0.0
2014-Aug-19 03:33N 43°34' E 010°18'0 0.0
2014-Aug-19 02:33N 43°34' E 010°18'0 0.0
2014-Aug-19 01:33N 43°34' E 010°18'0 0.0
2014-Aug-19 00:33N 43°34' E 010°18'0 0.0
2014-Aug-18 23:33N 43°34' E 010°18'1 0.9
2014-Aug-18 22:33N 43°35' E 010°18'1 0.9
2014-Aug-18 21:33N 43°34' E 010°18'0 0.0
2014-Aug-18 20:33N 43°34' E 010°18'0 0.0
2014-Aug-18 19:33N 43°34' E 010°18'0 0.0
2014-Aug-18 18:33N 43°34' E 010°18'2 1.5
2014-Aug-18 17:33N 43°35' E 010°19'2 1.5
2014-Aug-18 16:33N 43°34' E 010°18'0 0.0
2014-Aug-17 15:33N 43°34' E 010°18'0 0.0
2014-Aug-17 14:33N 43°34' E 010°18'2 1.6
2014-Aug-17 13:33N 43°35' E 010°19'2 2.0
2014-Aug-17 12:33N 43°33' E 010°18'0 0.4
2014-Aug-17 11:33N 43°34' E 010°18'1 1.1
2014-Aug-17 10:33N 43°35' E 010°18'3 2.6
2014-Aug-17 09:33N 43°32' E 010°17'2 1.7
2014-Aug-17 08:33N 43°34' E 010°18'0 0.0
2014-Aug-17 07:33N 43°34' E 010°18'1 1.1
2014-Aug-17 06:33N 43°33' E 010°17'1 1.1
2014-Aug-17 05:33N 43°34' E 010°18'0 0.0
2014-Aug-17 04:33N 43°34' E 010°18'0 0.0
2014-Aug-16 08:33N 43°34' E 010°18'0 0.0
2014-Aug-14 17:15N 43°34' E 010°18'0 0.5
2014-Aug-14 16:33N 43°34' E 010°18'1 0.6
2014-Aug-14 15:33N 43°34' E 010°19'1 0.9
2014-Aug-14 14:33N 43°34' E 010°18'1 0.6
2014-Aug-14 13:33N 43°33' E 010°18'0 0.5
2014-Aug-14 12:33N 43°34' E 010°18'0 0.2
2014-Aug-14 11:33N 43°34' E 010°18'0 0.0
2014-Aug-14 10:33N 43°34' E 010°18'0 0.0
2014-Aug-14 09:33N 43°34' E 010°18'0 0.0
2014-Aug-14 08:33N 43°34' E 010°18'0 0.0
2014-Aug-14 07:33N 43°34' E 010°18'0 0.0
2014-Aug-14 06:33N 43°34' E 010°18'1 1.1
2014-Aug-14 05:33N 43°33' E 010°17'1 0.6
2014-Aug-14 04:33N 43°33' E 010°17'1 0.1
2014-Aug-13 16:13N 43°34' E 010°18'1 0.8
2014-Aug-13 15:33N 43°34' E 010°18'0 0.4
2014-Aug-13 14:33N 43°34' E 010°18'0 0.1
2014-Aug-13 13:33N 43°34' E 010°18'0 0.0
2014-Aug-13 12:33N 43°34' E 010°18'0 0.0
2014-Aug-13 11:33N 43°34' E 010°18'1 0.9
2014-Aug-13 10:33N 43°35' E 010°18'1 0.9
2014-Aug-13 09:33N 43°34' E 010°18'0 0.0
2014-Aug-13 08:33N 43°34' E 010°18'0 0.0
2014-Aug-13 07:33N 43°34' E 010°18'0 0.0
2014-Aug-13 06:33N 43°34' E 010°18'0 0.0
2014-Aug-13 05:33N 43°34' E 010°18'0 0.0
2014-Aug-13 04:33N 43°34' E 010°18'0 0.0
2014-Aug-12 15:33N 43°34' E 010°18'0 0.0
2014-Aug-12 14:33N 43°34' E 010°18'1 1.0
2014-Aug-12 13:33N 43°35' E 010°18'  

Dump ship's entire track history